createdAt,value
2022-10-05T00:01:30.514Z,101095.78
2022-10-05T00:04:05.797Z,101084.47
2022-10-05T00:06:36.483Z,101092.72
2022-10-05T00:09:14.182Z,101072.31
2022-10-05T00:11:45.699Z,101059.44
2022-10-05T00:14:20.685Z,101066.59
2022-10-05T00:16:51.859Z,101060.28
2022-10-05T00:19:24.265Z,101066.75
2022-10-05T00:21:52.013Z,101060.59
2022-10-05T00:24:21.318Z,101065.63
2022-10-05T00:26:57.645Z,101056.97
2022-10-05T00:29:27.560Z,101061.59
2022-10-05T00:31:55.443Z,101063.13
2022-10-05T00:34:25.390Z,101066.50
2022-10-05T00:36:53.355Z,101061.47
2022-10-05T00:39:21.489Z,101057.56
2022-10-05T00:42:04.144Z,101055.88
2022-10-05T00:44:40.679Z,101053.94
2022-10-05T00:47:19.202Z,101057.03
2022-10-05T00:50:06.890Z,101054.53
2022-10-05T00:52:45.977Z,101057.03
2022-10-05T00:55:22.193Z,101051.16
2022-10-05T00:58:02.097Z,101063.03
2022-10-05T01:00:37.303Z,101059.56
2022-10-05T01:03:12.762Z,101052.56
2022-10-05T01:05:56.051Z,101063.72
2022-10-05T01:08:36.791Z,101053.25
2022-10-05T01:11:11.464Z,101061.50
2022-10-05T01:13:49.484Z,101062.34
2022-10-05T01:16:27.643Z,101055.91
2022-10-05T01:19:02.390Z,101062.34
2022-10-05T01:21:35.843Z,101060.94
2022-10-05T01:24:34.142Z,101067.22
2022-10-05T01:27:20.048Z,101053.94
2022-10-05T01:29:55.745Z,101050.84
2022-10-05T01:32:31.528Z,101052.78
2022-10-05T01:35:10.909Z,101047.78
2022-10-05T01:37:52.281Z,101050.84
2022-10-05T01:40:29.273Z,101055.44
2022-10-05T01:43:07.954Z,101055.88
2022-10-05T01:45:46.969Z,101053.94
2022-10-05T01:48:23.428Z,101043.72
2022-10-05T01:51:01.419Z,101039.66
2022-10-05T01:53:38.526Z,101040.75
2022-10-05T01:56:15.606Z,101040.47
2022-10-05T01:58:54.608Z,101026.50
2022-10-05T02:01:33.198Z,101027.88
2022-10-05T02:04:08.309Z,101032.06
2022-10-05T02:06:41.698Z,101026.31
2022-10-05T02:09:15.554Z,101023.16
2022-10-05T02:11:48.467Z,101014.75
2022-10-05T02:14:22.227Z,101010.88
2022-10-05T02:16:55.831Z,101005.31
2022-10-05T02:19:30.574Z,101003.63
2022-10-05T02:22:06.226Z,101005.00
2022-10-05T02:24:40.372Z,101001.22
2022-10-05T02:27:10.880Z,101003.44
2022-10-05T02:29:46.584Z,101000.53
2022-10-05T02:32:22.121Z,101004.16
2022-10-05T02:34:57.655Z,101015.31
2022-10-05T02:37:35.241Z,101011.00
2022-10-05T02:40:17.249Z,101003.72
2022-10-05T02:42:54.741Z,101018.94
2022-10-05T02:45:33.455Z,101009.16
2022-10-05T02:48:11.953Z,101009.19
2022-10-05T02:50:49.131Z,101015.59
2022-10-05T02:53:26.595Z,101003.88
2022-10-05T02:56:08.280Z,101011.72
2022-10-05T02:58:45.961Z,101007.25
2022-10-05T03:01:25.842Z,101005.44
2022-10-05T03:04:08.484Z,101001.69
2022-10-05T03:06:45.505Z,100987.31
2022-10-05T03:09:16.454Z,100995.81
2022-10-05T03:11:52.344Z,100999.03
2022-10-05T03:14:27.193Z,100993.88
2022-10-05T03:17:07.428Z,100994.31
2022-10-05T03:19:54.363Z,100990.53
2022-10-05T03:22:35.203Z,100994.19
2022-10-05T03:25:37.300Z,100990.28
2022-10-05T03:28:12.260Z,100990.00
2022-10-05T03:30:49.335Z,100986.38
2022-10-05T03:33:26.500Z,100968.50
2022-10-05T03:36:06.086Z,100973.81
2022-10-05T03:38:43.878Z,100978.28
2022-10-05T03:41:19.165Z,100978.28
2022-10-05T03:44:01.178Z,100981.66
2022-10-05T03:46:40.369Z,100977.19
2022-10-05T03:49:21.436Z,100977.44
2022-10-05T03:51:54.822Z,100949.78
2022-10-05T03:54:25.624Z,100972.72
2022-10-05T03:56:56.721Z,100971.59
2022-10-05T03:59:32.588Z,100961.13
2022-10-05T04:02:06.123Z,100967.16
2022-10-05T04:04:37.793Z,100967.97
2022-10-05T04:07:12.728Z,100947.03
2022-10-05T04:09:43.895Z,100956.53
2022-10-05T04:12:21.761Z,100956.81
2022-10-05T04:14:51.940Z,100935.47
2022-10-05T04:17:26.603Z,100946.47
2022-10-05T04:20:00.120Z,100953.72
2022-10-05T04:22:35.138Z,100951.50
2022-10-05T04:25:13.895Z,100932.81
2022-10-05T04:27:46.803Z,100951.06
2022-10-05T04:30:17.639Z,100950.66
2022-10-05T04:32:51.245Z,100944.91
2022-10-05T04:35:36.300Z,100948.28
2022-10-05T04:38:22.639Z,100947.88
2022-10-05T04:41:08.391Z,100933.91
2022-10-05T04:43:50.536Z,100945.94
2022-10-05T04:46:30.915Z,100945.66
2022-10-05T04:49:31.784Z,100955.00
2022-10-05T04:52:09.499Z,100954.00
2022-10-05T04:54:51.673Z,100955.44
2022-10-05T04:57:25.981Z,100958.78
2022-10-05T05:00:24.259Z,100961.56
2022-10-05T05:03:15.979Z,100938.94
2022-10-05T05:06:16.467Z,100956.25
2022-10-05T05:09:16.640Z,100953.47
2022-10-05T05:11:59.234Z,100946.75
2022-10-05T05:14:47.921Z,100960.03
2022-10-05T05:17:31.491Z,100962.69
2022-10-05T05:20:15.866Z,100956.13
2022-10-05T05:22:50.828Z,100959.63
2022-10-05T05:25:40.112Z,100962.41
2022-10-05T05:28:24.079Z,100954.00
2022-10-05T05:31:01.171Z,100960.72
2022-10-05T05:33:42.211Z,100959.88
2022-10-05T05:36:33.056Z,100965.06
2022-10-05T05:39:20.111Z,100944.38
2022-10-05T05:42:00.499Z,100953.63
2022-10-05T05:44:40.007Z,100938.09
2022-10-05T05:47:19.221Z,100945.22
2022-10-05T05:50:06.943Z,100954.00
2022-10-05T05:52:42.823Z,100955.97
2022-10-05T05:55:19.882Z,100948.72
2022-10-05T05:57:54.178Z,100955.00
2022-10-05T06:00:29.194Z,100950.13
2022-10-05T06:03:04.885Z,100953.75
2022-10-05T06:05:37.261Z,100957.81
2022-10-05T06:08:13.432Z,100937.00
2022-10-05T06:10:48.997Z,100967.72
2022-10-05T06:13:21.558Z,100961.44
2022-10-05T06:15:55.242Z,100957.81
2022-10-05T06:18:24.726Z,100969.13
2022-10-05T06:21:00.926Z,100967.44
2022-10-05T06:23:34.284Z,100962.41
2022-10-05T06:26:18.958Z,100966.59
2022-10-05T06:28:53.265Z,100972.47
2022-10-05T06:31:42.029Z,100966.03
2022-10-05T06:34:23.985Z,100957.81
2022-10-05T06:36:56.614Z,100966.16
2022-10-05T06:40:01.083Z,100966.59
2022-10-05T06:42:48.607Z,100963.53
2022-10-05T06:45:53.091Z,100963.94
2022-10-05T06:48:42.687Z,100958.75
2022-10-05T06:51:34.663Z,100954.28
2022-10-05T06:54:46.656Z,100962.56
2022-10-05T06:57:38.963Z,100963.53
2022-10-05T07:00:17.901Z,100959.06
2022-10-05T07:02:54.318Z,100964.94
2022-10-05T07:05:58.031Z,100908.38
2022-10-05T07:08:39.117Z,100959.75
2022-10-05T07:11:19.853Z,100952.34
2022-10-05T07:14:13.263Z,100956.13
2022-10-05T07:16:54.425Z,100953.19
2022-10-05T07:19:37.743Z,100962.41
2022-10-05T07:22:33.303Z,100966.72
2022-10-05T07:25:10.637Z,100954.44
2022-10-05T07:27:49.520Z,100964.34
2022-10-05T07:30:20.452Z,100963.06
2022-10-05T07:32:59.770Z,100957.19
2022-10-05T07:35:56.991Z,100960.81
2022-10-05T07:38:32.069Z,100954.13
2022-10-05T07:41:06.782Z,100963.47
2022-10-05T07:44:01.496Z,100968.47
2022-10-05T07:46:43.764Z,100962.47
2022-10-05T07:49:19.234Z,100960.78
2022-10-05T07:51:51.052Z,100967.63
2022-10-05T07:54:27.901Z,100967.31
2022-10-05T07:57:06.071Z,100972.50
2022-10-05T07:59:41.754Z,100971.38
2022-10-05T08:02:23.633Z,100975.00
2022-10-05T08:04:58.656Z,100980.47
2022-10-05T08:07:31.755Z,100977.66
2022-10-05T08:10:06.763Z,100973.06
2022-10-05T08:12:56.006Z,100981.03
2022-10-05T08:15:27.384Z,100976.41
2022-10-05T08:18:00.970Z,100977.66
2022-10-05T08:20:40.890Z,100977.66
2022-10-05T08:23:19.931Z,100970.28
2022-10-05T08:25:58.274Z,100976.00
2022-10-05T08:28:32.040Z,100984.09
2022-10-05T08:31:04.914Z,100983.81
2022-10-05T08:33:42.156Z,100975.13
2022-10-05T08:36:13.917Z,100986.28
2022-10-05T08:38:43.035Z,100991.19
2022-10-05T08:41:38.409Z,100980.97
2022-10-05T08:44:46.505Z,100975.34
2022-10-05T08:47:23.661Z,100977.56
2022-10-05T08:50:08.176Z,100974.75
2022-10-05T08:52:53.251Z,100979.50
2022-10-05T08:55:42.367Z,100979.19
2022-10-05T08:58:42.739Z,100982.94
2022-10-05T09:01:21.091Z,100977.03
2022-10-05T09:04:18.151Z,100968.47
2022-10-05T09:07:01.123Z,100963.16
2022-10-05T09:10:02.221Z,100971.63
2022-10-05T09:13:02.566Z,100965.63
2022-10-05T09:15:55.589Z,100962.19
2022-10-05T09:18:50.432Z,100962.44
2022-10-05T09:21:33.910Z,100963.81
2022-10-05T09:24:16.476Z,100954.00
2022-10-05T09:26:45.676Z,100961.53
2022-10-05T09:29:51.005Z,100957.28
2022-10-05T09:32:41.200Z,100961.31
2022-10-05T09:35:26.697Z,100952.72
2022-10-05T09:38:13.927Z,100955.13
2022-10-05T09:41:23.038Z,100945.56
2022-10-05T09:44:29.028Z,100949.66
2022-10-05T09:47:10.228Z,100939.72
2022-10-05T09:50:04.674Z,100938.53
2022-10-05T09:53:06.139Z,100947.09
2022-10-05T09:56:06.157Z,100937.28
2022-10-05T09:58:56.172Z,100941.94
2022-10-05T10:01:37.238Z,100930.06
2022-10-05T10:04:29.158Z,100936.22
2022-10-05T10:07:19.012Z,100939.63
2022-10-05T10:10:06.889Z,100948.25
2022-10-05T10:12:47.926Z,100936.41
2022-10-05T10:15:52.924Z,100932.19
2022-10-05T10:18:39.709Z,100931.75
2022-10-05T10:21:29.419Z,100928.22
2022-10-05T10:24:14.697Z,100931.06
2022-10-05T10:27:01.159Z,100940.41
2022-10-05T10:29:44.059Z,100937.41
2022-10-05T10:32:27.357Z,100937.41
2022-10-05T10:35:18.834Z,100912.88
2022-10-05T10:38:25.599Z,100897.69
2022-10-05T10:41:11.821Z,100923.00
2022-10-05T10:44:02.526Z,100924.81
2022-10-05T10:46:39.757Z,100915.38
2022-10-05T10:49:23.743Z,100908.13
2022-10-05T10:52:18.786Z,100902.56
2022-10-05T10:55:28.528Z,100906.09
2022-10-05T10:58:28.290Z,100912.50
2022-10-05T11:01:10.663Z,100916.28
2022-10-05T11:04:09.699Z,100909.94
2022-10-05T11:07:06.027Z,100906.69
2022-10-05T11:09:56.245Z,100901.22
2022-10-05T11:13:08.622Z,100905.09
2022-10-05T11:19:00.684Z,100892.91
2022-10-05T11:21:34.209Z,100876.88
2022-10-05T11:24:28.779Z,100879.50
2022-10-05T11:30:50.301Z,100861.97
2022-10-05T11:33:43.567Z,100862.25
2022-10-05T11:36:31.193Z,100858.00
2022-10-05T11:39:25.560Z,100850.19
2022-10-05T11:42:19.316Z,100834.97
2022-10-05T11:45:21.729Z,100825.72
2022-10-05T11:48:32.591Z,100820.66
2022-10-05T11:51:23.975Z,100813.47
2022-10-05T11:54:02.520Z,100800.53
2022-10-05T11:56:37.101Z,100792.91
2022-10-05T11:59:14.098Z,100780.78
2022-10-05T12:01:51.691Z,100783.41
2022-10-05T12:04:33.175Z,100769.75
2022-10-05T12:07:15.731Z,100770.47
2022-10-05T12:10:17.232Z,100769.72
2022-10-05T12:13:00.043Z,100767.41
2022-10-05T12:15:32.800Z,100757.19
2022-10-05T12:18:08.361Z,100754.41
2022-10-05T12:20:45.829Z,100749.69
2022-10-05T12:23:18.707Z,100750.06
2022-10-05T12:25:52.807Z,100742.56
2022-10-05T12:28:29.029Z,100736.22
2022-10-05T12:31:08.583Z,100732.06
2022-10-05T12:33:43.894Z,100734.38
2022-10-05T12:36:16.319Z,100723.69
2022-10-05T12:38:51.329Z,100720.16
2022-10-05T12:41:23.243Z,100716.47
2022-10-05T12:44:05.756Z,100720.25
2022-10-05T12:46:42.283Z,100711.06
2022-10-05T12:49:25.083Z,100699.69
2022-10-05T12:51:58.608Z,100704.78
2022-10-05T12:54:39.280Z,100715.47
2022-10-05T12:57:14.725Z,100706.13
2022-10-05T12:59:48.674Z,100704.81
2022-10-05T13:02:30.230Z,100703.88
2022-10-05T13:05:03.609Z,100708.88
2022-10-05T13:07:51.608Z,100709.16
2022-10-05T13:10:32.209Z,100701.50
2022-10-05T13:13:14.197Z,100696.13
2022-10-05T13:15:50.995Z,100691.81
2022-10-05T13:18:26.970Z,100694.13
2022-10-05T13:21:04.547Z,100680.91
2022-10-05T13:23:43.567Z,100684.88
2022-10-05T13:26:15.518Z,100676.78
2022-10-05T13:28:52.847Z,100673.47
2022-10-05T13:31:25.617Z,100667.38
2022-10-05T13:34:04.473Z,100668.69
2022-10-05T13:36:45.144Z,100661.38
2022-10-05T13:39:31.619Z,100651.22
2022-10-05T13:42:06.774Z,100650.88
2022-10-05T13:44:43.655Z,100639.34
2022-10-05T13:47:20.858Z,100626.03
2022-10-05T13:49:55.121Z,100630.84
2022-10-05T13:52:45.430Z,100644.97
2022-10-05T13:55:30.268Z,100640.97
2022-10-05T13:58:05.779Z,100632.41
2022-10-05T14:00:41.639Z,100631.72
2022-10-05T14:03:27.477Z,100629.38
2022-10-05T14:05:58.005Z,100640.56
2022-10-05T14:08:32.830Z,100625.16
2022-10-05T14:11:22.036Z,100626.00
2022-10-05T14:13:50.701Z,100627.84
2022-10-05T14:16:23.795Z,100630.50
2022-10-05T14:18:54.963Z,100623.50
2022-10-05T14:21:24.739Z,100617.84
2022-10-05T14:23:53.184Z,100628.84
2022-10-05T14:26:34.303Z,100621.84
2022-10-05T14:29:16.556Z,100623.09
2022-10-05T14:31:51.025Z,100616.75
2022-10-05T14:34:32.221Z,100628.72
2022-10-05T14:37:04.719Z,100631.66
2022-10-05T14:39:35.394Z,100610.03
2022-10-05T14:42:19.513Z,100629.63
2022-10-05T14:45:00.322Z,100627.63
2022-10-05T14:47:31.807Z,100633.91
2022-10-05T14:50:15.528Z,100623.88
2022-10-05T14:52:51.616Z,100628.56
2022-10-05T14:55:37.296Z,100631.78
2022-10-05T14:58:23.707Z,100634.84
2022-10-05T15:00:56.998Z,100636.69
2022-10-05T15:03:41.015Z,100638.91
2022-10-05T15:06:18.302Z,100631.94
2022-10-05T15:09:16.968Z,100637.88
2022-10-05T15:11:50.250Z,100636.41
2022-10-05T15:14:22.909Z,100643.25
2022-10-05T15:16:53.859Z,100641.09
2022-10-05T15:19:25.936Z,100643.47
2022-10-05T15:22:18.656Z,100638.78
2022-10-05T15:24:58.850Z,100646.97
2022-10-05T15:27:32.714Z,100641.72
2022-10-05T15:30:10.153Z,100652.72
2022-10-05T15:33:05.197Z,100655.75
2022-10-05T15:35:45.272Z,100659.78
2022-10-05T15:38:21.767Z,100645.28
2022-10-05T15:40:58.825Z,100658.38
2022-10-05T15:43:32.743Z,100662.59
2022-10-05T15:46:11.282Z,100666.56
2022-10-05T15:48:48.582Z,100659.91
2022-10-05T15:51:28.022Z,100663.13
2022-10-05T15:54:17.501Z,100677.13
2022-10-05T15:56:53.060Z,100674.38
2022-10-05T15:59:31.569Z,100682.72
2022-10-05T16:02:06.456Z,100681.41
2022-10-05T16:04:45.408Z,100673.91
2022-10-05T16:07:38.590Z,100684.75
2022-10-05T16:10:16.794Z,100684.69
2022-10-05T16:12:56.675Z,100694.34
2022-10-05T16:15:33.287Z,100697.69
2022-10-05T16:18:20.645Z,100705.88
2022-10-05T16:20:52.937Z,100710.28
2022-10-05T16:23:31.187Z,100709.13
2022-10-05T16:26:13.207Z,100713.16
2022-10-05T16:28:52.880Z,100720.19
2022-10-05T16:31:27.751Z,100718.91
2022-10-05T16:34:09.394Z,100737.50
2022-10-05T16:36:49.054Z,100732.63
2022-10-05T16:39:24.395Z,100742.31
2022-10-05T16:42:02.719Z,100744.03
2022-10-05T16:44:39.518Z,100755.41
2022-10-05T16:47:27.551Z,100749.22
2022-10-05T16:50:04.735Z,100768.53
2022-10-05T16:52:34.639Z,100784.22
2022-10-05T16:55:07.851Z,100782.22
2022-10-05T16:57:40.055Z,100785.22
2022-10-05T17:00:20.635Z,100781.41
2022-10-05T17:03:12.040Z,100790.44
2022-10-05T17:06:09.569Z,100798.59
2022-10-05T17:09:11.643Z,100805.97
2022-10-05T17:11:55.173Z,100814.66
2022-10-05T17:14:33.922Z,100818.66
2022-10-05T17:17:18.141Z,100816.66
2022-10-05T17:19:56.548Z,100825.84
2022-10-05T17:22:30.273Z,100838.41
2022-10-05T17:25:10.783Z,100852.31
2022-10-05T17:27:52.436Z,100863.50
2022-10-05T17:30:50.401Z,100868.88
2022-10-05T17:33:25.795Z,100874.09
2022-10-05T17:36:12.820Z,100887.47
2022-10-05T17:38:51.651Z,100887.31
2022-10-05T17:41:21.794Z,100888.97
2022-10-05T17:44:26.129Z,100895.00
2022-10-05T17:46:56.488Z,100898.84
2022-10-05T17:49:46.218Z,100901.88
2022-10-05T17:52:43.472Z,100917.06
2022-10-05T17:55:46.756Z,100920.22
2022-10-05T17:59:01.998Z,100926.72
2022-10-05T18:01:34.650Z,100917.22
2022-10-05T18:04:34.624Z,100941.25
2022-10-05T18:07:05.520Z,100936.91
2022-10-05T18:09:51.596Z,100937.91
2022-10-05T18:12:41.763Z,100939.56
2022-10-05T18:15:38.313Z,100944.75
2022-10-05T18:18:35.777Z,100951.44
2022-10-05T18:21:20.324Z,100959.44
2022-10-05T18:24:01.107Z,100972.13
2022-10-05T18:26:38.954Z,100958.97
2022-10-05T18:29:44.812Z,100953.13
2022-10-05T18:32:21.311Z,100950.28
2022-10-05T18:34:54.288Z,100949.44
2022-10-05T18:37:31.574Z,100931.75
2022-10-05T18:40:22.781Z,100936.75
2022-10-05T18:43:01.100Z,100945.78
2022-10-05T18:45:36.642Z,100945.94
2022-10-05T18:48:18.141Z,100946.09
2022-10-05T18:50:55.290Z,100941.91
2022-10-05T18:53:38.281Z,100951.78
2022-10-05T18:56:18.339Z,100946.44
2022-10-05T18:58:57.025Z,100961.78
2022-10-05T19:01:55.322Z,100950.59
2022-10-05T19:04:33.449Z,100954.25
2022-10-05T19:07:11.885Z,100952.78
2022-10-05T19:09:54.683Z,100948.59
2022-10-05T19:12:38.101Z,100949.09
2022-10-05T19:15:21.842Z,100954.09
2022-10-05T19:18:07.361Z,100954.78
2022-10-05T19:20:41.434Z,100967.44
2022-10-05T19:23:23.259Z,100969.78
2022-10-05T19:25:58.667Z,100966.44
2022-10-05T19:28:31.350Z,100974.13
2022-10-05T19:31:15.121Z,100967.63
2022-10-05T19:33:56.791Z,100980.78
2022-10-05T19:36:36.959Z,100975.44
2022-10-05T19:39:10.943Z,100980.44
2022-10-05T19:41:55.768Z,100985.47
2022-10-05T19:44:36.303Z,100981.13
2022-10-05T19:47:17.337Z,100979.94
2022-10-05T19:49:57.438Z,100994.63
2022-10-05T19:52:30.988Z,100999.16
2022-10-05T19:55:14.846Z,100997.16
2022-10-05T19:57:52.664Z,100998.16
2022-10-05T20:00:25.951Z,101002.66
2022-10-05T20:03:10.155Z,101005.47
2022-10-05T20:05:37.988Z,101001.81
2022-10-05T20:08:05.834Z,100997.47
2022-10-05T20:10:33.980Z,100993.81
2022-10-05T20:13:05.236Z,100988.78
2022-10-05T20:16:07.328Z,100998.47
2022-10-05T20:19:06.942Z,101005.47
2022-10-05T20:21:49.485Z,100992.47
2022-10-05T20:24:19.457Z,100988.94
2022-10-05T20:27:16.191Z,101009.50
2022-10-05T20:29:46.820Z,100983.75
2022-10-05T20:32:17.640Z,101011.34
2022-10-05T20:34:47.306Z,101012.81
2022-10-05T20:37:19.278Z,101001.97
2022-10-05T20:39:48.600Z,101017.00
2022-10-05T20:42:16.560Z,101021.84
2022-10-05T20:44:45.783Z,101031.84
2022-10-05T20:47:13.903Z,101043.22
2022-10-05T20:49:42.010Z,101040.88
2022-10-05T20:52:12.063Z,101047.88
2022-10-05T20:54:40.519Z,101050.06
2022-10-05T20:57:09.038Z,101051.22
2022-10-05T20:59:37.484Z,101071.59
2022-10-05T21:02:07.816Z,101068.09
2022-10-05T21:04:42.899Z,101065.41
2022-10-05T21:07:10.988Z,101065.09
2022-10-05T21:09:40.883Z,101068.28
2022-10-05T21:12:09.290Z,101083.31
2022-10-05T21:14:37.740Z,101087.66
2022-10-05T21:17:07.324Z,101079.63
2022-10-05T21:19:38.468Z,101082.31
2022-10-05T21:22:08.322Z,101081.84
2022-10-05T21:24:37.344Z,101085.16
2022-10-05T21:27:05.846Z,101086.66
2022-10-05T21:29:34.418Z,101084.00
2022-10-05T21:32:02.535Z,101112.69
2022-10-05T21:34:31.899Z,101103.84
2022-10-05T21:36:59.660Z,101103.69
2022-10-05T21:39:27.471Z,101087.34
2022-10-05T21:41:55.255Z,101095.00
2022-10-05T21:44:23.191Z,101091.31
2022-10-05T21:46:51.163Z,101098.69
2022-10-05T21:49:21.615Z,101101.69
2022-10-05T21:51:50.903Z,101107.53
2022-10-05T21:54:21.776Z,101104.19
2022-10-05T21:56:52.559Z,101106.88
2022-10-05T21:59:23.272Z,101108.03
2022-10-05T22:01:51.007Z,101124.88
2022-10-05T22:04:19.059Z,101126.88
2022-10-05T22:06:46.851Z,101128.72
2022-10-05T22:09:16.056Z,101142.06
2022-10-05T22:11:46.852Z,101133.03
2022-10-05T22:14:16.224Z,101154.94
2022-10-05T22:16:45.523Z,101197.69
2022-10-05T22:19:18.123Z,101240.91
2022-10-05T22:21:46.032Z,101227.69
2022-10-05T22:24:15.959Z,101263.59
2022-10-05T22:26:50.502Z,101269.38
2022-10-05T22:29:19.223Z,101258.84
2022-10-05T22:31:50.309Z,101273.41
2022-10-05T22:34:19.011Z,101282.31
2022-10-05T22:36:47.558Z,101285.50
2022-10-05T22:39:15.703Z,101287.78
2022-10-05T22:41:44.988Z,101288.97
2022-10-05T22:44:12.889Z,101288.88
2022-10-05T22:46:42.572Z,101285.94
2022-10-05T22:49:10.641Z,101278.38
2022-10-05T22:51:38.442Z,101271.72
2022-10-05T22:54:06.776Z,101278.88
2022-10-05T22:56:34.538Z,101294.28
2022-10-05T22:59:03.763Z,101289.59
2022-10-05T23:01:31.651Z,101287.94
2022-10-05T23:04:04.519Z,101291.84
2022-10-05T23:06:32.757Z,101286.28
2022-10-05T23:09:03.195Z,101292.69
2022-10-05T23:11:31.375Z,101314.00
2022-10-05T23:14:00.278Z,101313.69
2022-10-05T23:16:31.278Z,101310.63
2022-10-05T23:19:00.996Z,101299.69
2022-10-05T23:21:30.415Z,101320.13
2022-10-05T23:23:58.319Z,101338.63
2022-10-05T23:26:26.579Z,101327.56
2022-10-05T23:28:57.019Z,101310.31
2022-10-05T23:31:26.958Z,101331.91
2022-10-05T23:33:56.500Z,101333.03
2022-10-05T23:36:26.268Z,101347.63
2022-10-05T23:39:01.234Z,101358.59
2022-10-05T23:41:32.401Z,101387.72
2022-10-05T23:44:00.111Z,101377.25
2022-10-05T23:46:30.248Z,101382.13
2022-10-05T23:48:59.365Z,101388.03
2022-10-05T23:51:27.202Z,101397.84
2022-10-05T23:53:57.692Z,101400.66
2022-10-05T23:56:25.736Z,101412.44
2022-10-05T23:58:53.553Z,101439.66
